sensor_id;sensor_type;location;lat;lon;timestamp;temperature;humidity
3308;DHT22;1666;48.898;9.182;2024-01-30T00:00:46;3.20;1.00
3308;DHT22;1666;48.898;9.182;2024-01-30T00:03:19;3.20;1.00
3308;DHT22;1666;48.898;9.182;2024-01-30T00:05:49;3.20;1.00
3308;DHT22;1666;48.898;9.182;2024-01-30T00:08:21;3.20;1.00
3308;DHT22;1666;48.898;9.182;2024-01-30T00:10:52;3.20;1.00
3308;DHT22;1666;48.898;9.182;2024-01-30T00:13:22;3.20;1.00
3308;DHT22;1666;48.898;9.182;2024-01-30T00:15:52;3.40;1.00
3308;DHT22;1666;48.898;9.182;2024-01-30T00:18:24;3.40;1.00
3308;DHT22;1666;48.898;9.182;2024-01-30T00:20:55;3.40;1.00
3308;DHT22;1666;48.898;9.182;2024-01-30T00:23:25;3.50;1.00
3308;DHT22;1666;48.898;9.182;2024-01-30T00:25:55;3.40;1.00
3308;DHT22;1666;48.898;9.182;2024-01-30T00:28:24;3.50;1.00
3308;DHT22;1666;48.898;9.182;2024-01-30T00:30:54;3.50;1.00
3308;DHT22;1666;48.898;9.182;2024-01-30T00:33:27;3.50;1.00
3308;DHT22;1666;48.898;9.182;2024-01-30T00:35:57;3.50;1.00
3308;DHT22;1666;48.898;9.182;2024-01-30T00:38:27;3.50;1.00
3308;DHT22;1666;48.898;9.182;2024-01-30T00:40:58;3.70;1.00
3308;DHT22;1666;48.898;9.182;2024-01-30T00:43:29;3.60;1.00
3308;DHT22;1666;48.898;9.182;2024-01-30T00:45:59;3.60;1.00
3308;DHT22;1666;48.898;9.182;2024-01-30T00:48:31;3.60;1.00
3308;DHT22;1666;48.898;9.182;2024-01-30T00:51:01;3.50;1.00
3308;DHT22;1666;48.898;9.182;2024-01-30T00:53:31;3.50;1.00
3308;DHT22;1666;48.898;9.182;2024-01-30T00:56:02;3.40;1.00
3308;DHT22;1666;48.898;9.182;2024-01-30T00:58:32;3.40;1.00
3308;DHT22;1666;48.898;9.182;2024-01-30T01:01:02;3.40;1.00
3308;DHT22;1666;48.898;9.182;2024-01-30T01:03:37;3.40;1.00
3308;DHT22;1666;48.898;9.182;2024-01-30T01:06:08;3.40;1.00
3308;DHT22;1666;48.898;9.182;2024-01-30T01:08:38;3.40;1.00
3308;DHT22;1666;48.898;9.182;2024-01-30T01:11:08;3.40;1.00
3308;DHT22;1666;48.898;9.182;2024-01-30T01:13:38;3.40;1.00
3308;DHT22;1666;48.898;9.182;2024-01-30T01:16:09;3.40;1.00
3308;DHT22;1666;48.898;9.182;2024-01-30T01:18:41;3.40;1.00
3308;DHT22;1666;48.898;9.182;2024-01-30T01:21:11;3.50;1.00
3308;DHT22;1666;48.898;9.182;2024-01-30T01:23:41;3.50;1.00
3308;DHT22;1666;48.898;9.182;2024-01-30T01:26:11;3.50;1.00
3308;DHT22;1666;48.898;9.182;2024-01-30T01:28:42;3.60;1.00
3308;DHT22;1666;48.898;9.182;2024-01-30T01:31:12;3.60;1.00
3308;DHT22;1666;48.898;9.182;2024-01-30T01:33:45;3.50;1.00
3308;DHT22;1666;48.898;9.182;2024-01-30T01:36:15;3.50;1.00
3308;DHT22;1666;48.898;9.182;2024-01-30T01:38:45;3.60;1.00
3308;DHT22;1666;48.898;9.182;2024-01-30T01:41:15;3.70;1.00
3308;DHT22;1666;48.898;9.182;2024-01-30T01:43:45;3.60;1.00
3308;DHT22;1666;48.898;9.182;2024-01-30T01:46:15;3.50;1.00
3308;DHT22;1666;48.898;9.182;2024-01-30T01:48:47;3.50;1.00
3308;DHT22;1666;48.898;9.182;2024-01-30T01:51:18;3.50;1.00
3308;DHT22;1666;48.898;9.182;2024-01-30T01:53:49;3.40;1.00
3308;DHT22;1666;48.898;9.182;2024-01-30T01:56:19;3.40;1.00
3308;DHT22;1666;48.898;9.182;2024-01-30T01:58:49;3.40;1.00
3308;DHT22;1666;48.898;9.182;2024-01-30T02:01:21;3.50;1.00
3308;DHT22;1666;48.898;9.182;2024-01-30T02:03:56;3.50;1.00
3308;DHT22;1666;48.898;9.182;2024-01-30T02:06:26;3.50;1.00
3308;DHT22;1666;48.898;9.182;2024-01-30T02:08:56;3.40;1.00
3308;DHT22;1666;48.898;9.182;2024-01-30T02:11:26;3.40;1.00
3308;DHT22;1666;48.898;9.182;2024-01-30T02:13:57;3.40;1.00
3308;DHT22;1666;48.898;9.182;2024-01-30T02:16:27;3.40;1.00
3308;DHT22;1666;48.898;9.182;2024-01-30T02:19:00;3.40;1.00
3308;DHT22;1666;48.898;9.182;2024-01-30T02:21:35;3.20;1.00
3308;DHT22;1666;48.898;9.182;2024-01-30T02:24:05;3.30;1.00
3308;DHT22;1666;48.898;9.182;2024-01-30T02:26:35;3.20;1.00
3308;DHT22;1666;48.898;9.182;2024-01-30T02:29:05;3.20;1.00
3308;DHT22;1666;48.898;9.182;2024-01-30T02:31:35;3.20;1.00
3308;DHT22;1666;48.898;9.182;2024-01-30T02:34:05;3.10;1.00
3308;DHT22;1666;48.898;9.182;2024-01-30T02:36:38;3.10;1.00
3308;DHT22;1666;48.898;9.182;2024-01-30T02:39:08;3.10;1.00
3308;DHT22;1666;48.898;9.182;2024-01-30T02:41:38;3.10;1.00
3308;DHT22;1666;48.898;9.182;2024-01-30T02:44:08;3.10;1.00
3308;DHT22;1666;48.898;9.182;2024-01-30T02:46:39;3.20;1.00
3308;DHT22;1666;48.898;9.182;2024-01-30T02:49:08;3.20;1.00
3308;DHT22;1666;48.898;9.182;2024-01-30T02:51:41;3.20;1.00
3308;DHT22;1666;48.898;9.182;2024-01-30T02:54:11;3.20;1.00
3308;DHT22;1666;48.898;9.182;2024-01-30T02:56:41;3.30;1.00
3308;DHT22;1666;48.898;9.182;2024-01-30T02:59:12;3.30;1.00
3308;DHT22;1666;48.898;9.182;2024-01-30T03:01:44;3.30;1.00
3308;DHT22;1666;48.898;9.182;2024-01-30T03:04:15;3.20;1.00
3308;DHT22;1666;48.898;9.182;2024-01-30T03:06:48;3.30;1.00
3308;DHT22;1666;48.898;9.182;2024-01-30T03:09:18;3.20;1.00
3308;DHT22;1666;48.898;9.182;2024-01-30T03:11:48;3.30;1.00
3308;DHT22;1666;48.898;9.182;2024-01-30T03:14:18;3.20;1.00
3308;DHT22;1666;48.898;9.182;2024-01-30T03:16:48;3.00;1.00
3308;DHT22;1666;48.898;9.182;2024-01-30T03:19:18;3.10;1.00
3308;DHT22;1666;48.898;9.182;2024-01-30T03:21:52;3.00;1.00
3308;DHT22;1666;48.898;9.182;2024-01-30T03:24:22;3.00;1.00
3308;DHT22;1666;48.898;9.182;2024-01-30T03:26:53;2.90;1.00
3308;DHT22;1666;48.898;9.182;2024-01-30T03:29:23;2.80;1.00
3308;DHT22;1666;48.898;9.182;2024-01-30T03:31:53;2.80;1.00
3308;DHT22;1666;48.898;9.182;2024-01-30T03:34:23;2.80;1.00
3308;DHT22;1666;48.898;9.182;2024-01-30T03:36:55;2.70;1.00
3308;DHT22;1666;48.898;9.182;2024-01-30T03:39:25;2.70;1.00
3308;DHT22;1666;48.898;9.182;2024-01-30T03:41:55;2.70;1.00
3308;DHT22;1666;48.898;9.182;2024-01-30T03:44:26;2.60;1.00
3308;DHT22;1666;48.898;9.182;2024-01-30T03:46:58;2.60;1.00
3308;DHT22;1666;48.898;9.182;2024-01-30T03:49:28;2.60;1.00
3308;DHT22;1666;48.898;9.182;2024-01-30T03:52:01;2.70;1.00
3308;DHT22;1666;48.898;9.182;2024-01-30T03:54:31;2.70;1.00
3308;DHT22;1666;48.898;9.182;2024-01-30T03:57:01;2.70;1.00
3308;DHT22;1666;48.898;9.182;2024-01-30T03:59:32;2.70;1.00
3308;DHT22;1666;48.898;9.182;2024-01-30T04:02:02;2.70;1.00
3308;DHT22;1666;48.898;9.182;2024-01-30T04:04:33;2.70;1.00
3308;DHT22;1666;48.898;9.182;2024-01-30T04:07:05;2.70;1.00
3308;DHT22;1666;48.898;9.182;2024-01-30T04:09:36;2.70;1.00
3308;DHT22;1666;48.898;9.182;2024-01-30T04:12:06;2.70;1.00
3308;DHT22;1666;48.898;9.182;2024-01-30T04:14:38;2.70;1.00
3308;DHT22;1666;48.898;9.182;2024-01-30T04:17:09;2.70;1.00
3308;DHT22;1666;48.898;9.182;2024-01-30T04:19:40;2.70;1.00
3308;DHT22;1666;48.898;9.182;2024-01-30T04:22:13;2.70;1.00
3308;DHT22;1666;48.898;9.182;2024-01-30T04:24:43;2.80;1.00
3308;DHT22;1666;48.898;9.182;2024-01-30T04:27:13;2.70;1.00
3308;DHT22;1666;48.898;9.182;2024-01-30T04:29:43;2.70;1.00
3308;DHT22;1666;48.898;9.182;2024-01-30T04:32:13;2.70;1.00
3308;DHT22;1666;48.898;9.182;2024-01-30T04:34:43;2.70;1.00
3308;DHT22;1666;48.898;9.182;2024-01-30T04:37:16;2.60;1.00
3308;DHT22;1666;48.898;9.182;2024-01-30T04:39:46;2.60;1.00
3308;DHT22;1666;48.898;9.182;2024-01-30T04:42:16;2.60;1.00
3308;DHT22;1666;48.898;9.182;2024-01-30T04:44:47;2.60;1.00
3308;DHT22;1666;48.898;9.182;2024-01-30T04:47:16;2.80;1.00
3308;DHT22;1666;48.898;9.182;2024-01-30T04:49:47;2.90;1.00
3308;DHT22;1666;48.898;9.182;2024-01-30T04:52:20;2.90;1.00
3308;DHT22;1666;48.898;9.182;2024-01-30T04:54:50;2.90;1.00
3308;DHT22;1666;48.898;9.182;2024-01-30T04:57:20;3.00;1.00
3308;DHT22;1666;48.898;9.182;2024-01-30T04:59:50;3.00;1.00
3308;DHT22;1666;48.898;9.182;2024-01-30T05:02:20;3.00;1.00
3308;DHT22;1666;48.898;9.182;2024-01-30T05:04:50;2.90;1.00
3308;DHT22;1666;48.898;9.182;2024-01-30T05:07:24;2.90;1.00
3308;DHT22;1666;48.898;9.182;2024-01-30T05:09:54;2.90;1.00
3308;DHT22;1666;48.898;9.182;2024-01-30T05:12:26;2.80;1.00
3308;DHT22;1666;48.898;9.182;2024-01-30T05:14:56;2.80;1.00
3308;DHT22;1666;48.898;9.182;2024-01-30T05:17:26;2.80;1.00
3308;DHT22;1666;48.898;9.182;2024-01-30T05:19:56;2.70;1.00
3308;DHT22;1666;48.898;9.182;2024-01-30T05:22:29;2.70;1.00
3308;DHT22;1666;48.898;9.182;2024-01-30T05:24:59;2.60;1.00
3308;DHT22;1666;48.898;9.182;2024-01-30T05:27:29;2.70;1.00
3308;DHT22;1666;48.898;9.182;2024-01-30T05:29:59;2.80;1.00
3308;DHT22;1666;48.898;9.182;2024-01-30T05:32:29;2.80;1.00
3308;DHT22;1666;48.898;9.182;2024-01-30T05:35:00;2.90;1.00
3308;DHT22;1666;48.898;9.182;2024-01-30T05:37:32;2.90;1.00
3308;DHT22;1666;48.898;9.182;2024-01-30T05:40:03;2.80;1.00
3308;DHT22;1666;48.898;9.182;2024-01-30T05:42:35;2.80;1.00
3308;DHT22;1666;48.898;9.182;2024-01-30T05:45:06;2.80;1.00
3308;DHT22;1666;48.898;9.182;2024-01-30T05:47:36;2.80;1.00
3308;DHT22;1666;48.898;9.182;2024-01-30T05:50:07;2.70;1.00
3308;DHT22;1666;48.898;9.182;2024-01-30T05:52:41;2.70;1.00
3308;DHT22;1666;48.898;9.182;2024-01-30T05:55:11;2.70;1.00
3308;DHT22;1666;48.898;9.182;2024-01-30T05:57:42;2.70;1.00
3308;DHT22;1666;48.898;9.182;2024-01-30T06:00:13;2.70;1.00
3308;DHT22;1666;48.898;9.182;2024-01-30T06:02:43;2.70;1.00
3308;DHT22;1666;48.898;9.182;2024-01-30T06:05:13;2.70;1.00
3308;DHT22;1666;48.898;9.182;2024-01-30T06:07:46;2.80;1.00
3308;DHT22;1666;48.898;9.182;2024-01-30T06:10:16;2.70;1.00
3308;DHT22;1666;48.898;9.182;2024-01-30T06:12:48;2.70;1.00
3308;DHT22;1666;48.898;9.182;2024-01-30T06:15:18;2.70;1.00
3308;DHT22;1666;48.898;9.182;2024-01-30T06:17:48;2.70;1.00
3308;DHT22;1666;48.898;9.182;2024-01-30T06:20:19;2.60;1.00
3308;DHT22;1666;48.898;9.182;2024-01-30T06:22:52;2.60;1.00
3308;DHT22;1666;48.898;9.182;2024-01-30T06:25:22;2.60;1.00
3308;DHT22;1666;48.898;9.182;2024-01-30T06:27:52;2.70;1.00
3308;DHT22;1666;48.898;9.182;2024-01-30T06:30:22;2.70;1.00
3308;DHT22;1666;48.898;9.182;2024-01-30T06:32:52;2.70;1.00
3308;DHT22;1666;48.898;9.182;2024-01-30T06:35:22;2.80;1.00
3308;DHT22;1666;48.898;9.182;2024-01-30T06:37:55;2.80;1.00
3308;DHT22;1666;48.898;9.182;2024-01-30T06:40:25;2.80;1.00
3308;DHT22;1666;48.898;9.182;2024-01-30T06:42:55;2.70;1.00
3308;DHT22;1666;48.898;9.182;2024-01-30T06:45:25;2.70;1.00
3308;DHT22;1666;48.898;9.182;2024-01-30T06:47:55;2.70;1.00
3308;DHT22;1666;48.898;9.182;2024-01-30T06:50:26;2.60;1.00
3308;DHT22;1666;48.898;9.182;2024-01-30T06:52:58;2.60;1.00
3308;DHT22;1666;48.898;9.182;2024-01-30T06:55:28;2.50;1.00
3308;DHT22;1666;48.898;9.182;2024-01-30T06:57:58;2.50;1.00
3308;DHT22;1666;48.898;9.182;2024-01-30T07:00:28;2.50;1.00
3308;DHT22;1666;48.898;9.182;2024-01-30T07:02:58;2.50;1.00
3308;DHT22;1666;48.898;9.182;2024-01-30T07:05:29;2.50;1.00
3308;DHT22;1666;48.898;9.182;2024-01-30T07:08:01;2.50;1.00
3308;DHT22;1666;48.898;9.182;2024-01-30T07:10:31;2.60;1.00
3308;DHT22;1666;48.898;9.182;2024-01-30T07:13:02;2.70;1.00
3308;DHT22;1666;48.898;9.182;2024-01-30T07:15:33;2.70;1.00
3308;DHT22;1666;48.898;9.182;2024-01-30T07:18:04;2.70;1.00
3308;DHT22;1666;48.898;9.182;2024-01-30T07:20:35;2.80;1.00
3308;DHT22;1666;48.898;9.182;2024-01-30T07:23:11;2.80;1.00
3308;DHT22;1666;48.898;9.182;2024-01-30T07:25:43;2.90;1.00
3308;DHT22;1666;48.898;9.182;2024-01-30T07:28:17;2.90;1.00
3308;DHT22;1666;48.898;9.182;2024-01-30T07:30:47;3.00;1.00
3308;DHT22;1666;48.898;9.182;2024-01-30T07:33:18;3.00;1.00
3308;DHT22;1666;48.898;9.182;2024-01-30T07:35:48;3.10;1.00
3308;DHT22;1666;48.898;9.182;2024-01-30T07:38:21;3.10;1.00
3308;DHT22;1666;48.898;9.182;2024-01-30T07:40:53;3.20;1.00
3308;DHT22;1666;48.898;9.182;2024-01-30T07:43:27;3.30;1.00
3308;DHT22;1666;48.898;9.182;2024-01-30T07:45:57;3.30;1.00
3308;DHT22;1666;48.898;9.182;2024-01-30T07:48:28;3.40;1.00
3308;DHT22;1666;48.898;9.182;2024-01-30T07:50:58;3.50;1.00
3308;DHT22;1666;48.898;9.182;2024-01-30T07:53:32;3.50;1.00
3308;DHT22;1666;48.898;9.182;2024-01-30T07:56:02;3.50;1.00
3308;DHT22;1666;48.898;9.182;2024-01-30T07:58:33;3.50;1.00
3308;DHT22;1666;48.898;9.182;2024-01-30T08:01:03;3.50;1.00
3308;DHT22;1666;48.898;9.182;2024-01-30T08:03:33;3.60;1.00
3308;DHT22;1666;48.898;9.182;2024-01-30T08:06:04;3.70;1.00
3308;DHT22;1666;48.898;9.182;2024-01-30T08:08:37;3.70;1.00
3308;DHT22;1666;48.898;9.182;2024-01-30T08:11:07;3.70;1.00
3308;DHT22;1666;48.898;9.182;2024-01-30T08:13:37;3.80;1.00
3308;DHT22;1666;48.898;9.182;2024-01-30T08:16:07;3.80;1.00
3308;DHT22;1666;48.898;9.182;2024-01-30T08:18:41;3.90;1.00
3308;DHT22;1666;48.898;9.182;2024-01-30T08:21:11;3.90;1.00
3308;DHT22;1666;48.898;9.182;2024-01-30T08:23:44;4.10;1.00
3308;DHT22;1666;48.898;9.182;2024-01-30T08:26:13;4.10;1.00
3308;DHT22;1666;48.898;9.182;2024-01-30T08:28:43;4.20;1.00
3308;DHT22;1666;48.898;9.182;2024-01-30T08:31:14;4.40;1.00
3308;DHT22;1666;48.898;9.182;2024-01-30T08:33:44;4.50;1.00
3308;DHT22;1666;48.898;9.182;2024-01-30T08:36:16;4.60;1.00
3308;DHT22;1666;48.898;9.182;2024-01-30T08:38:49;4.70;1.00
3308;DHT22;1666;48.898;9.182;2024-01-30T08:41:25;4.80;1.00
3308;DHT22;1666;48.898;9.182;2024-01-30T08:43:55;4.90;1.00
3308;DHT22;1666;48.898;9.182;2024-01-30T08:46:26;5.00;1.00
3308;DHT22;1666;48.898;9.182;2024-01-30T08:48:57;5.10;1.00
3308;DHT22;1666;48.898;9.182;2024-01-30T08:51:28;5.10;1.00
3308;DHT22;1666;48.898;9.182;2024-01-30T08:54:00;5.20;1.00
3308;DHT22;1666;48.898;9.182;2024-01-30T08:56:30;5.20;1.00
3308;DHT22;1666;48.898;9.182;2024-01-30T08:59:01;5.30;1.00
3308;DHT22;1666;48.898;9.182;2024-01-30T09:01:31;5.40;1.00
3308;DHT22;1666;48.898;9.182;2024-01-30T09:04:01;5.40;1.00
3308;DHT22;1666;48.898;9.182;2024-01-30T09:06:31;5.40;1.00
3308;DHT22;1666;48.898;9.182;2024-01-30T09:09:04;5.30;1.00
3308;DHT22;1666;48.898;9.182;2024-01-30T09:11:35;5.30;1.00
3308;DHT22;1666;48.898;9.182;2024-01-30T09:14:05;5.40;1.00
3308;DHT22;1666;48.898;9.182;2024-01-30T09:16:35;5.60;1.00
3308;DHT22;1666;48.898;9.182;2024-01-30T09:19:06;5.70;1.00
3308;DHT22;1666;48.898;9.182;2024-01-30T09:21:36;5.90;1.00
3308;DHT22;1666;48.898;9.182;2024-01-30T09:24:09;6.00;1.00
3308;DHT22;1666;48.898;9.182;2024-01-30T09:26:39;6.10;1.00
3308;DHT22;1666;48.898;9.182;2024-01-30T09:29:09;6.10;1.00
3308;DHT22;1666;48.898;9.182;2024-01-30T09:31:39;6.30;1.00
3308;DHT22;1666;48.898;9.182;2024-01-30T09:34:09;6.50;1.00
3308;DHT22;1666;48.898;9.182;2024-01-30T09:36:40;6.50;1.00
3308;DHT22;1666;48.898;9.182;2024-01-30T09:39:12;6.60;1.00
3308;DHT22;1666;48.898;9.182;2024-01-30T09:41:55;6.60;1.00
3308;DHT22;1666;48.898;9.182;2024-01-30T09:44:34;6.80;1.00
3308;DHT22;1666;48.898;9.182;2024-01-30T09:47:05;6.90;1.00
3308;DHT22;1666;48.898;9.182;2024-01-30T09:49:36;6.90;1.00
3308;DHT22;1666;48.898;9.182;2024-01-30T09:52:08;6.80;1.00
3308;DHT22;1666;48.898;9.182;2024-01-30T09:54:41;6.90;1.00
3308;DHT22;1666;48.898;9.182;2024-01-30T09:57:12;7.00;1.00
3308;DHT22;1666;48.898;9.182;2024-01-30T09:59:42;7.30;1.00
3308;DHT22;1666;48.898;9.182;2024-01-30T10:02:12;7.30;1.00
3308;DHT22;1666;48.898;9.182;2024-01-30T10:04:41;7.40;1.00
3308;DHT22;1666;48.898;9.182;2024-01-30T10:07:11;7.50;1.00
3308;DHT22;1666;48.898;9.182;2024-01-30T10:09:44;7.60;1.00
3308;DHT22;1666;48.898;9.182;2024-01-30T10:12:14;7.60;1.00
3308;DHT22;1666;48.898;9.182;2024-01-30T10:14:45;7.60;1.00
3308;DHT22;1666;48.898;9.182;2024-01-30T10:17:15;7.70;1.00
3308;DHT22;1666;48.898;9.182;2024-01-30T10:19:58;7.80;1.00
3308;DHT22;1666;48.898;9.182;2024-01-30T10:22:29;7.80;1.00
3308;DHT22;1666;48.898;9.182;2024-01-30T10:25:01;8.00;1.00
3308;DHT22;1666;48.898;9.182;2024-01-30T10:27:33;8.10;1.00
3308;DHT22;1666;48.898;9.182;2024-01-30T10:30:03;8.20;1.00
3308;DHT22;1666;48.898;9.182;2024-01-30T10:32:33;8.10;1.00
3308;DHT22;1666;48.898;9.182;2024-01-30T10:35:04;8.20;1.00
3308;DHT22;1666;48.898;9.182;2024-01-30T10:37:34;8.20;1.00
3308;DHT22;1666;48.898;9.182;2024-01-30T10:40:08;8.30;1.00
3308;DHT22;1666;48.898;9.182;2024-01-30T10:42:42;8.30;1.00
3308;DHT22;1666;48.898;9.182;2024-01-30T10:45:13;8.40;1.00
3308;DHT22;1666;48.898;9.182;2024-01-30T10:47:48;8.30;1.00
3308;DHT22;1666;48.898;9.182;2024-01-30T10:50:18;8.40;1.00
3308;DHT22;1666;48.898;9.182;2024-01-30T10:52:50;8.60;1.00
3308;DHT22;1666;48.898;9.182;2024-01-30T10:55:22;8.70;1.00
3308;DHT22;1666;48.898;9.182;2024-01-30T10:57:55;8.70;1.00
3308;DHT22;1666;48.898;9.182;2024-01-30T11:00:26;8.60;1.00
3308;DHT22;1666;48.898;9.182;2024-01-30T11:02:56;8.60;1.00
3308;DHT22;1666;48.898;9.182;2024-01-30T11:05:27;8.80;1.00
3308;DHT22;1666;48.898;9.182;2024-01-30T11:08:10;9.00;1.00
3308;DHT22;1666;48.898;9.182;2024-01-30T11:10:49;9.10;1.00
3308;DHT22;1666;48.898;9.182;2024-01-30T11:13:19;9.10;1.00
3308;DHT22;1666;48.898;9.182;2024-01-30T11:15:50;9.10;1.00
3308;DHT22;1666;48.898;9.182;2024-01-30T11:18:23;9.20;1.00
3308;DHT22;1666;48.898;9.182;2024-01-30T11:20:56;9.40;1.00
3308;DHT22;1666;48.898;9.182;2024-01-30T11:23:28;9.20;1.00
3308;DHT22;1666;48.898;9.182;2024-01-30T11:26:01;9.30;1.00
3308;DHT22;1666;48.898;9.182;2024-01-30T11:28:34;9.40;1.00
3308;DHT22;1666;48.898;9.182;2024-01-30T11:31:05;9.30;1.00
3308;DHT22;1666;48.898;9.182;2024-01-30T11:33:35;9.60;1.00
3308;DHT22;1666;48.898;9.182;2024-01-30T11:36:06;9.70;1.00
3308;DHT22;1666;48.898;9.182;2024-01-30T11:38:37;9.70;1.00
3308;DHT22;1666;48.898;9.182;2024-01-30T11:41:14;9.50;1.00
3308;DHT22;1666;48.898;9.182;2024-01-30T11:43:52;9.60;1.00
3308;DHT22;1666;48.898;9.182;2024-01-30T11:46:25;9.70;1.00
3308;DHT22;1666;48.898;9.182;2024-01-30T11:48:56;9.80;1.00
3308;DHT22;1666;48.898;9.182;2024-01-30T11:51:26;9.80;1.00
3308;DHT22;1666;48.898;9.182;2024-01-30T11:53:57;9.80;1.00
3308;DHT22;1666;48.898;9.182;2024-01-30T11:56:29;9.80;1.00
3308;DHT22;1666;48.898;9.182;2024-01-30T11:59:00;9.80;1.00
3308;DHT22;1666;48.898;9.182;2024-01-30T12:01:31;9.70;1.00
3308;DHT22;1666;48.898;9.182;2024-01-30T12:04:01;9.80;1.00
3308;DHT22;1666;48.898;9.182;2024-01-30T12:06:36;9.90;1.00
3308;DHT22;1666;48.898;9.182;2024-01-30T12:09:06;9.90;1.00
3308;DHT22;1666;48.898;9.182;2024-01-30T12:11:47;9.80;1.00
3308;DHT22;1666;48.898;9.182;2024-01-30T12:14:17;9.90;1.00
3308;DHT22;1666;48.898;9.182;2024-01-30T12:16:49;10.00;1.00
3308;DHT22;1666;48.898;9.182;2024-01-30T12:19:22;10.00;1.00
3308;DHT22;1666;48.898;9.182;2024-01-30T12:21:56;10.00;1.00
3308;DHT22;1666;48.898;9.182;2024-01-30T12:24:27;9.90;1.00
3308;DHT22;1666;48.898;9.182;2024-01-30T12:27:00;10.00;1.00
3308;DHT22;1666;48.898;9.182;2024-01-30T12:29:32;10.00;1.00
3308;DHT22;1666;48.898;9.182;2024-01-30T12:32:06;10.10;1.00
3308;DHT22;1666;48.898;9.182;2024-01-30T12:34:40;10.20;1.00
3308;DHT22;1666;48.898;9.182;2024-01-30T12:37:26;10.00;1.00
3308;DHT22;1666;48.898;9.182;2024-01-30T12:39:57;10.00;1.00
3308;DHT22;1666;48.898;9.182;2024-01-30T12:42:29;10.00;1.00
3308;DHT22;1666;48.898;9.182;2024-01-30T12:45:01;10.00;1.00
3308;DHT22;1666;48.898;9.182;2024-01-30T12:47:32;10.00;1.00
3308;DHT22;1666;48.898;9.182;2024-01-30T12:50:02;10.00;1.00
3308;DHT22;1666;48.898;9.182;2024-01-30T12:52:32;10.10;1.00
3308;DHT22;1666;48.898;9.182;2024-01-30T12:55:03;10.20;1.00
3308;DHT22;1666;48.898;9.182;2024-01-30T12:57:36;10.20;1.00
3308;DHT22;1666;48.898;9.182;2024-01-30T13:00:07;10.30;1.00
3308;DHT22;1666;48.898;9.182;2024-01-30T13:02:37;10.30;1.00
3308;DHT22;1666;48.898;9.182;2024-01-30T13:05:10;10.20;1.00
3308;DHT22;1666;48.898;9.182;2024-01-30T13:07:41;10.30;1.00
3308;DHT22;1666;48.898;9.182;2024-01-30T13:10:11;10.30;1.00
3308;DHT22;1666;48.898;9.182;2024-01-30T13:12:44;10.40;1.00
3308;DHT22;1666;48.898;9.182;2024-01-30T13:15:14;10.50;1.00
3308;DHT22;1666;48.898;9.182;2024-01-30T13:17:45;10.50;1.00
3308;DHT22;1666;48.898;9.182;2024-01-30T13:20:15;10.70;1.00
3308;DHT22;1666;48.898;9.182;2024-01-30T13:22:47;10.60;1.00
3308;DHT22;1666;48.898;9.182;2024-01-30T13:25:19;10.60;1.00
3308;DHT22;1666;48.898;9.182;2024-01-30T13:27:51;10.70;1.00
3308;DHT22;1666;48.898;9.182;2024-01-30T13:30:21;10.80;1.00
3308;DHT22;1666;48.898;9.182;2024-01-30T13:32:51;10.80;1.00
3308;DHT22;1666;48.898;9.182;2024-01-30T13:35:21;10.80;1.00
3308;DHT22;1666;48.898;9.182;2024-01-30T13:37:51;10.80;1.00
3308;DHT22;1666;48.898;9.182;2024-01-30T13:40:22;10.80;1.00
3308;DHT22;1666;48.898;9.182;2024-01-30T13:42:55;10.90;1.00
3308;DHT22;1666;48.898;9.182;2024-01-30T13:45:26;10.90;1.00
3308;DHT22;1666;48.898;9.182;2024-01-30T13:47:56;10.90;1.00
3308;DHT22;1666;48.898;9.182;2024-01-30T13:50:27;11.00;1.00
3308;DHT22;1666;48.898;9.182;2024-01-30T13:52:57;11.10;1.00
3308;DHT22;1666;48.898;9.182;2024-01-30T13:55:27;11.10;1.00
3308;DHT22;1666;48.898;9.182;2024-01-30T13:58:00;10.90;1.00
3308;DHT22;1666;48.898;9.182;2024-01-30T14:00:31;10.90;1.00
3308;DHT22;1666;48.898;9.182;2024-01-30T14:03:01;10.90;1.00
3308;DHT22;1666;48.898;9.182;2024-01-30T14:05:32;10.90;1.00
3308;DHT22;1666;48.898;9.182;2024-01-30T14:08:03;10.80;1.00
3308;DHT22;1666;48.898;9.182;2024-01-30T14:10:34;10.80;1.00
3308;DHT22;1666;48.898;9.182;2024-01-30T14:13:07;10.80;1.00
3308;DHT22;1666;48.898;9.182;2024-01-30T14:15:38;10.80;1.00
3308;DHT22;1666;48.898;9.182;2024-01-30T14:18:08;10.80;1.00
3308;DHT22;1666;48.898;9.182;2024-01-30T14:20:39;10.80;1.00
3308;DHT22;1666;48.898;9.182;2024-01-30T14:23:09;10.70;1.00
3308;DHT22;1666;48.898;9.182;2024-01-30T14:25:39;10.70;1.00
3308;DHT22;1666;48.898;9.182;2024-01-30T14:28:12;10.70;1.00
3308;DHT22;1666;48.898;9.182;2024-01-30T14:30:42;10.60;1.00
3308;DHT22;1666;48.898;9.182;2024-01-30T14:33:12;10.70;1.00
3308;DHT22;1666;48.898;9.182;2024-01-30T14:35:42;10.60;1.00
3308;DHT22;1666;48.898;9.182;2024-01-30T14:38:12;10.60;1.00
3308;DHT22;1666;48.898;9.182;2024-01-30T14:40:42;10.50;1.00
3308;DHT22;1666;48.898;9.182;2024-01-30T14:43:15;10.40;1.00
3308;DHT22;1666;48.898;9.182;2024-01-30T14:45:45;10.40;1.00
3308;DHT22;1666;48.898;9.182;2024-01-30T14:48:16;10.50;1.00
3308;DHT22;1666;48.898;9.182;2024-01-30T14:50:47;10.40;1.00
3308;DHT22;1666;48.898;9.182;2024-01-30T14:53:17;10.30;1.00
3308;DHT22;1666;48.898;9.182;2024-01-30T14:55:47;10.30;1.00
3308;DHT22;1666;48.898;9.182;2024-01-30T14:58:20;10.30;1.00
3308;DHT22;1666;48.898;9.182;2024-01-30T15:00:51;10.20;1.00
3308;DHT22;1666;48.898;9.182;2024-01-30T15:03:21;10.20;1.00
3308;DHT22;1666;48.898;9.182;2024-01-30T15:05:55;10.10;1.00
3308;DHT22;1666;48.898;9.182;2024-01-30T15:08:25;10.00;1.00
3308;DHT22;1666;48.898;9.182;2024-01-30T15:10:55;10.00;1.00
3308;DHT22;1666;48.898;9.182;2024-01-30T15:13:28;9.90;1.00
3308;DHT22;1666;48.898;9.182;2024-01-30T15:15:58;9.80;1.00
3308;DHT22;1666;48.898;9.182;2024-01-30T15:18:30;9.80;1.00
3308;DHT22;1666;48.898;9.182;2024-01-30T15:21:00;9.80;1.00
3308;DHT22;1666;48.898;9.182;2024-01-30T15:23:30;9.70;1.00
3308;DHT22;1666;48.898;9.182;2024-01-30T15:26:00;9.70;1.00
3308;DHT22;1666;48.898;9.182;2024-01-30T15:28:37;9.70;1.00
3308;DHT22;1666;48.898;9.182;2024-01-30T15:31:07;9.60;1.00
3308;DHT22;1666;48.898;9.182;2024-01-30T15:33:37;9.50;1.00
3308;DHT22;1666;48.898;9.182;2024-01-30T15:36:10;9.50;1.00
3308;DHT22;1666;48.898;9.182;2024-01-30T15:38:41;9.40;1.00
3308;DHT22;1666;48.898;9.182;2024-01-30T15:41:11;9.40;1.00
3308;DHT22;1666;48.898;9.182;2024-01-30T15:43:44;9.40;1.00
3308;DHT22;1666;48.898;9.182;2024-01-30T15:46:15;9.40;1.00
3308;DHT22;1666;48.898;9.182;2024-01-30T15:48:48;9.30;1.00
3308;DHT22;1666;48.898;9.182;2024-01-30T15:51:20;9.30;1.00
3308;DHT22;1666;48.898;9.182;2024-01-30T15:53:54;9.20;1.00
3308;DHT22;1666;48.898;9.182;2024-01-30T15:56:24;9.20;1.00
3308;DHT22;1666;48.898;9.182;2024-01-30T15:58:57;9.20;1.00
3308;DHT22;1666;48.898;9.182;2024-01-30T16:01:33;9.20;1.00
3308;DHT22;1666;48.898;9.182;2024-01-30T16:04:04;9.10;1.00
3308;DHT22;1666;48.898;9.182;2024-01-30T16:06:34;9.10;1.00
3308;DHT22;1666;48.898;9.182;2024-01-30T16:09:05;9.10;1.00
3308;DHT22;1666;48.898;9.182;2024-01-30T16:11:41;9.00;1.00
3308;DHT22;1666;48.898;9.182;2024-01-30T16:14:15;9.00;1.00
3308;DHT22;1666;48.898;9.182;2024-01-30T16:16:46;8.90;1.00
3308;DHT22;1666;48.898;9.182;2024-01-30T16:19:17;8.90;1.00
3308;DHT22;1666;48.898;9.182;2024-01-30T16:21:50;8.90;1.00
3308;DHT22;1666;48.898;9.182;2024-01-30T16:24:22;8.90;1.00
3308;DHT22;1666;48.898;9.182;2024-01-30T16:26:54;8.90;1.00
3308;DHT22;1666;48.898;9.182;2024-01-30T16:29:28;8.90;1.00
3308;DHT22;1666;48.898;9.182;2024-01-30T16:32:05;9.00;1.00
3308;DHT22;1666;48.898;9.182;2024-01-30T16:34:38;8.90;1.00
3308;DHT22;1666;48.898;9.182;2024-01-30T16:37:09;8.80;1.00
3308;DHT22;1666;48.898;9.182;2024-01-30T16:39:46;8.90;1.00
3308;DHT22;1666;48.898;9.182;2024-01-30T16:42:17;8.80;1.00
3308;DHT22;1666;48.898;9.182;2024-01-30T16:44:53;8.90;1.00
3308;DHT22;1666;48.898;9.182;2024-01-30T16:47:29;8.90;1.00
3308;DHT22;1666;48.898;9.182;2024-01-30T16:50:05;8.90;1.00
3308;DHT22;1666;48.898;9.182;2024-01-30T16:52:40;8.80;1.00
3308;DHT22;1666;48.898;9.182;2024-01-30T16:55:15;8.90;1.00
3308;DHT22;1666;48.898;9.182;2024-01-30T16:57:49;8.80;1.00